createdAt,value
2023-03-24T00:00:40.832Z,67.57
2023-03-24T00:03:32.069Z,67.69
2023-03-24T00:06:16.824Z,67.27
2023-03-24T00:09:05.888Z,67.21
2023-03-24T00:11:48.093Z,67.11
2023-03-24T00:14:38.889Z,67.97
2023-03-24T00:17:26.398Z,68.29
2023-03-24T00:20:21.818Z,67.90
2023-03-24T00:23:11.892Z,67.68
2023-03-24T00:26:06.529Z,67.14
2023-03-24T00:28:57.851Z,67.61
2023-03-24T00:31:47.823Z,67.05
2023-03-24T00:34:30.210Z,68.10
2023-03-24T00:37:19.004Z,68.76
2023-03-24T00:40:01.241Z,69.13
2023-03-24T00:42:55.908Z,69.20
2023-03-24T00:45:46.891Z,68.93
2023-03-24T00:48:36.802Z,69.64
2023-03-24T00:51:20.237Z,69.28
2023-03-24T00:54:09.818Z,69.03
2023-03-24T00:57:03.820Z,68.94
2023-03-24T00:59:49.592Z,68.73
2023-03-24T01:02:41.918Z,68.49
2023-03-24T01:05:37.479Z,68.29
2023-03-24T01:08:20.832Z,68.20
2023-03-24T01:11:03.080Z,68.07
2023-03-24T01:13:51.814Z,68.24
2023-03-24T01:16:40.774Z,68.01
2023-03-24T01:19:29.804Z,68.00
2023-03-24T01:22:18.868Z,67.42
2023-03-24T01:25:01.915Z,67.84
2023-03-24T01:27:51.808Z,67.46
2023-03-24T01:30:36.171Z,68.20
2023-03-24T01:33:25.805Z,68.26
2023-03-24T01:36:09.165Z,68.89
2023-03-24T01:38:57.808Z,69.99
2023-03-24T01:41:53.821Z,69.84
2023-03-24T01:44:47.197Z,70.41
2023-03-24T01:47:29.879Z,71.37
2023-03-24T01:50:18.940Z,71.87
2023-03-24T01:53:01.813Z,72.55
2023-03-24T01:56:07.777Z,72.57
2023-03-24T01:59:04.804Z,72.60
2023-03-24T02:01:53.378Z,73.64
2023-03-24T02:05:01.810Z,73.36
2023-03-24T02:08:00.873Z,73.71
2023-03-24T02:10:44.536Z,74.40
2023-03-24T02:13:33.815Z,74.60
2023-03-24T02:16:52.807Z,74.77
2023-03-24T02:19:59.580Z,74.72
2023-03-24T02:23:21.803Z,75.24
2023-03-24T02:26:59.875Z,75.46
2023-03-24T02:30:05.554Z,75.73
2023-03-24T02:33:22.829Z,75.64
2023-03-24T02:36:44.671Z,75.40
2023-03-24T02:39:45.775Z,75.77
2023-03-24T02:43:06.878Z,76.10
2023-03-24T02:46:08.247Z,76.15
2023-03-24T02:49:14.857Z,75.17
2023-03-24T02:52:32.076Z,75.37
2023-03-24T02:55:37.028Z,74.85
2023-03-24T02:58:40.086Z,75.37
2023-03-24T03:01:40.905Z,76.31
2023-03-24T03:04:47.222Z,75.90
2023-03-24T03:07:45.801Z,76.46
2023-03-24T03:10:41.811Z,77.25
2023-03-24T03:13:45.090Z,77.46
2023-03-24T03:16:54.602Z,77.98
2023-03-24T03:20:02.827Z,79.24
2023-03-24T03:23:04.683Z,80.13
2023-03-24T03:25:58.814Z,80.33
2023-03-24T03:28:57.892Z,80.42
2023-03-24T03:31:52.057Z,81.19
2023-03-24T03:34:53.832Z,81.66
2023-03-24T03:38:01.718Z,81.46
2023-03-24T03:40:59.770Z,82.29
2023-03-24T03:43:45.101Z,82.71
2023-03-24T03:46:34.878Z,83.17
2023-03-24T03:49:21.392Z,83.49
2023-03-24T03:52:09.830Z,84.36
2023-03-24T03:54:53.619Z,85.05
2023-03-24T03:57:43.809Z,85.51
2023-03-24T04:00:51.834Z,84.30
2023-03-24T04:04:00.863Z,85.12
2023-03-24T04:07:38.803Z,83.47
2023-03-24T04:11:12.177Z,83.52
2023-03-24T04:14:36.801Z,82.91
2023-03-24T04:18:16.006Z,83.25
2023-03-24T04:21:46.248Z,82.76
2023-03-24T04:24:50.863Z,82.54
2023-03-24T04:27:47.801Z,81.89
2023-03-24T04:30:48.720Z,81.02
2023-03-24T04:33:57.869Z,79.79
2023-03-24T04:37:02.627Z,78.81
2023-03-24T04:40:06.849Z,77.71
2023-03-24T04:42:57.042Z,76.07
2023-03-24T04:45:46.098Z,75.96
2023-03-24T04:48:52.817Z,76.23
2023-03-24T04:51:39.262Z,77.06
2023-03-24T04:54:37.783Z,76.00
2023-03-24T04:57:19.889Z,76.35
2023-03-24T05:00:16.809Z,75.72
2023-03-24T05:02:59.327Z,75.62
2023-03-24T05:05:48.746Z,75.66
2023-03-24T05:08:32.069Z,74.58
2023-03-24T05:11:20.789Z,75.15
2023-03-24T05:14:12.556Z,74.66
2023-03-24T05:17:01.782Z,74.69
2023-03-24T05:19:51.606Z,74.71
2023-03-24T05:22:33.839Z,74.22
2023-03-24T05:25:24.780Z,73.10
2023-03-24T05:28:07.148Z,73.63
2023-03-24T05:30:55.850Z,73.08
2023-03-24T05:33:54.074Z,71.43
2023-03-24T05:36:45.796Z,71.97
2023-03-24T05:39:36.056Z,71.00
2023-03-24T05:42:37.844Z,69.42
2023-03-24T05:45:21.997Z,68.59
2023-03-24T05:48:11.751Z,66.30
2023-03-24T05:51:21.666Z,64.03
2023-03-24T05:54:20.939Z,60.02
2023-03-24T05:57:16.519Z,60.23
2023-03-24T06:00:25.773Z,59.87
2023-03-24T06:03:18.414Z,58.51
2023-03-24T06:06:22.888Z,57.11
2023-03-24T06:09:13.313Z,58.00
2023-03-24T06:11:55.785Z,56.08
2023-03-24T06:14:52.856Z,52.35
2023-03-24T06:17:43.752Z,54.51
2023-03-24T06:20:35.778Z,54.14
2023-03-24T06:23:29.856Z,54.13
2023-03-24T06:26:26.809Z,51.79
2023-03-24T06:29:13.664Z,53.36
2023-03-24T06:32:03.844Z,51.44
2023-03-24T06:34:55.533Z,53.79
2023-03-24T06:37:57.817Z,50.67
2023-03-24T06:40:46.109Z,50.91
2023-03-24T06:43:28.798Z,49.93
2023-03-24T06:46:19.183Z,50.49
2023-03-24T06:49:02.109Z,50.26
2023-03-24T06:51:51.852Z,49.11
2023-03-24T06:54:37.197Z,50.12
2023-03-24T06:57:25.820Z,50.61
2023-03-24T07:00:27.033Z,50.71
2023-03-24T07:03:30.972Z,49.13
2023-03-24T07:06:26.251Z,49.90
2023-03-24T07:09:23.801Z,50.57
2023-03-24T07:12:14.824Z,52.52
2023-03-24T07:15:05.630Z,51.35
2023-03-24T07:17:50.811Z,53.74
2023-03-24T07:20:56.162Z,55.93
2023-03-24T07:23:44.821Z,56.07
2023-03-24T07:26:37.442Z,57.36
2023-03-24T07:29:33.809Z,60.18
2023-03-24T07:32:25.819Z,60.52
2023-03-24T07:35:14.788Z,61.99
2023-03-24T07:38:14.675Z,60.59
2023-03-24T07:41:07.766Z,61.51
2023-03-24T07:43:56.029Z,61.43
2023-03-24T07:46:52.256Z,60.35
2023-03-24T07:49:34.130Z,60.71
2023-03-24T07:52:25.931Z,60.54
2023-03-24T07:55:09.794Z,60.73
2023-03-24T07:58:10.810Z,59.56
2023-03-24T08:01:08.339Z,67.85
2023-03-24T08:04:03.992Z,67.20
2023-03-24T08:07:09.470Z,71.68
2023-03-24T08:09:58.773Z,75.65
2023-03-24T08:12:47.784Z,76.73
2023-03-24T08:15:31.015Z,76.61
2023-03-24T08:18:19.781Z,78.09
2023-03-24T08:21:09.772Z,80.69
2023-03-24T08:23:52.086Z,80.42
2023-03-24T08:26:42.911Z,77.91
2023-03-24T08:29:25.097Z,75.88
2023-03-24T08:32:13.791Z,76.71
2023-03-24T08:34:56.138Z,75.11
2023-03-24T08:37:54.816Z,75.58
2023-03-24T08:40:39.752Z,73.45
2023-03-24T08:43:30.733Z,72.72
2023-03-24T08:46:19.901Z,71.51
2023-03-24T08:49:02.134Z,73.04
2023-03-24T08:51:51.124Z,71.79
2023-03-24T08:54:34.039Z,71.80
2023-03-24T08:57:22.818Z,72.91
2023-03-24T09:00:17.693Z,72.67
2023-03-24T09:03:08.874Z,72.54
2023-03-24T09:05:51.095Z,70.96
2023-03-24T09:08:39.715Z,72.47
2023-03-24T09:11:25.546Z,71.20
2023-03-24T09:14:14.804Z,72.61
2023-03-24T09:16:57.263Z,69.75
2023-03-24T09:19:45.765Z,67.66
2023-03-24T09:22:28.116Z,68.61
2023-03-24T09:25:18.828Z,69.93
2023-03-24T09:28:01.932Z,71.72
2023-03-24T09:30:50.972Z,71.42
2023-03-24T09:33:39.797Z,70.01
2023-03-24T09:36:30.066Z,73.37
2023-03-24T09:39:20.131Z,72.88
2023-03-24T09:42:03.711Z,73.37
2023-03-24T09:44:55.725Z,71.13
2023-03-24T09:47:44.051Z,73.11
2023-03-24T09:50:46.771Z,73.51
2023-03-24T09:54:00.344Z,72.20
2023-03-24T09:56:52.198Z,72.71
2023-03-24T09:59:54.020Z,72.58
2023-03-24T10:02:42.888Z,73.49
2023-03-24T10:05:37.773Z,72.86
2023-03-24T10:08:33.387Z,74.13
2023-03-24T10:11:33.855Z,73.96
2023-03-24T10:14:32.051Z,74.73
2023-03-24T10:17:30.954Z,74.84
2023-03-24T10:20:44.063Z,75.04
2023-03-24T10:23:48.795Z,74.60
2023-03-24T10:26:30.955Z,75.18
2023-03-24T10:29:48.763Z,74.62
2023-03-24T10:32:41.856Z,75.36
2023-03-24T10:35:33.091Z,75.57
2023-03-24T10:38:32.710Z,76.02
2023-03-24T10:41:22.236Z,76.17
2023-03-24T10:44:12.837Z,75.53
2023-03-24T10:47:03.843Z,75.21
2023-03-24T10:49:52.783Z,76.96
2023-03-24T10:53:07.061Z,76.45
2023-03-24T10:55:51.973Z,76.72
2023-03-24T10:58:51.839Z,77.44
2023-03-24T11:01:38.174Z,77.75
2023-03-24T11:04:29.119Z,80.01
2023-03-24T11:07:25.028Z,80.19
2023-03-24T11:10:24.830Z,81.75
2023-03-24T11:13:09.227Z,82.24
2023-03-24T11:16:06.745Z,82.14
2023-03-24T11:19:07.031Z,81.20
2023-03-24T11:21:56.731Z,80.27
2023-03-24T11:24:43.063Z,80.90
2023-03-24T11:27:31.913Z,81.40
2023-03-24T11:30:20.046Z,82.79
2023-03-24T11:33:09.699Z,83.45
2023-03-24T11:35:59.355Z,84.34
2023-03-24T11:39:19.318Z,83.14
2023-03-24T11:42:11.060Z,80.86
2023-03-24T11:45:00.753Z,82.62
2023-03-24T11:47:50.128Z,82.92
2023-03-24T11:50:46.770Z,82.93
2023-03-24T11:53:59.780Z,85.18
2023-03-24T11:56:59.641Z,86.45
2023-03-24T11:59:53.766Z,86.88
2023-03-24T12:02:51.153Z,88.03
2023-03-24T12:05:51.053Z,87.62
2023-03-24T12:08:38.043Z,87.53
2023-03-24T12:12:08.309Z,87.02
2023-03-24T12:15:24.761Z,87.48
2023-03-24T12:18:43.018Z,88.92
2023-03-24T12:21:31.309Z,88.32
2023-03-24T12:24:28.757Z,88.38
2023-03-24T12:27:11.141Z,89.52
2023-03-24T12:30:20.776Z,89.21
2023-03-24T12:33:12.176Z,87.45
2023-03-24T12:36:12.852Z,86.57
2023-03-24T12:39:17.694Z,86.55
2023-03-24T12:42:18.769Z,86.58
2023-03-24T12:45:19.099Z,87.06
2023-03-24T12:48:28.698Z,88.03
2023-03-24T12:51:32.759Z,86.80
2023-03-24T12:54:37.571Z,85.78
2023-03-24T12:57:32.797Z,85.77
2023-03-24T13:00:18.342Z,86.81
2023-03-24T13:03:11.852Z,87.10
2023-03-24T13:06:16.317Z,87.50
2023-03-24T13:09:42.801Z,85.73
2023-03-24T13:12:36.556Z,86.45
2023-03-24T13:15:26.199Z,86.66
2023-03-24T13:18:20.157Z,85.96
2023-03-24T13:21:25.158Z,86.39
2023-03-24T13:24:21.118Z,86.53
2023-03-24T13:27:19.806Z,85.11
2023-03-24T13:30:28.219Z,85.01
2023-03-24T13:33:30.800Z,84.63
2023-03-24T13:36:21.334Z,84.01
2023-03-24T13:39:15.758Z,84.08
2023-03-24T13:42:00.067Z,84.43
2023-03-24T13:44:58.752Z,83.96
2023-03-24T13:48:06.803Z,85.45
2023-03-24T13:51:03.240Z,84.85
2023-03-24T13:53:51.762Z,85.26
2023-03-24T13:56:47.826Z,84.63
2023-03-24T13:59:37.185Z,84.62
2023-03-24T14:02:39.768Z,85.03
2023-03-24T14:05:31.509Z,84.77
2023-03-24T14:08:25.771Z,84.69
2023-03-24T14:11:09.089Z,85.04
2023-03-24T14:13:57.803Z,85.26
2023-03-24T14:17:16.080Z,84.62
2023-03-24T14:20:09.765Z,84.69
2023-03-24T14:22:55.083Z,84.35
2023-03-24T14:25:46.784Z,84.52
2023-03-24T14:28:41.227Z,85.59
2023-03-24T14:31:37.140Z,85.00
2023-03-24T14:34:28.756Z,84.56
2023-03-24T14:37:18.843Z,84.84
2023-03-24T14:40:18.026Z,84.95
2023-03-24T14:43:21.821Z,84.44
2023-03-24T14:46:12.449Z,84.15
2023-03-24T14:49:04.731Z,84.33
2023-03-24T14:51:51.288Z,84.77
2023-03-24T14:55:00.788Z,84.94
2023-03-24T14:57:47.025Z,84.59
2023-03-24T15:01:06.316Z,85.95
2023-03-24T15:04:06.382Z,84.88
2023-03-24T15:06:56.760Z,85.45
2023-03-24T15:09:43.167Z,84.65
2023-03-24T15:12:32.697Z,84.43
2023-03-24T15:15:33.821Z,84.34
2023-03-24T15:18:28.618Z,83.29
2023-03-24T15:21:37.779Z,84.10
2023-03-24T15:24:29.203Z,84.64
2023-03-24T15:27:16.785Z,85.05
2023-03-24T15:30:07.118Z,84.84
2023-03-24T15:32:53.829Z,84.46
2023-03-24T15:35:43.792Z,84.40
2023-03-24T15:38:46.707Z,85.22
2023-03-24T15:41:36.658Z,85.60
2023-03-24T15:44:35.771Z,85.35
2023-03-24T15:47:31.077Z,84.55
2023-03-24T15:50:13.770Z,85.11
2023-03-24T15:53:14.245Z,84.59
2023-03-24T15:55:56.674Z,85.40
2023-03-24T15:58:57.193Z,83.55
2023-03-24T16:01:45.297Z,82.94
2023-03-24T16:04:39.021Z,83.93
2023-03-24T16:07:39.745Z,83.68
2023-03-24T16:10:35.269Z,82.95
2023-03-24T16:13:28.844Z,83.10
2023-03-24T16:16:23.366Z,84.21
2023-03-24T16:19:06.753Z,85.01
2023-03-24T16:21:55.776Z,84.93
2023-03-24T16:24:38.163Z,85.68
2023-03-24T16:27:26.762Z,85.99
2023-03-24T16:30:10.255Z,86.63
2023-03-24T16:32:58.765Z,86.14
2023-03-24T16:35:42.357Z,86.49
2023-03-24T16:38:31.946Z,86.72
2023-03-24T16:41:21.699Z,86.82
2023-03-24T16:44:04.713Z,87.01
2023-03-24T16:46:48.371Z,86.48
2023-03-24T16:49:39.111Z,86.33
2023-03-24T16:52:27.987Z,86.85
2023-03-24T16:55:10.848Z,86.82
2023-03-24T16:58:00.150Z,86.73
2023-03-24T17:00:44.717Z,86.31
2023-03-24T17:03:39.821Z,86.86
2023-03-24T17:06:23.458Z,86.93
2023-03-24T17:09:13.780Z,86.51
2023-03-24T17:12:05.550Z,86.42
2023-03-24T17:14:54.778Z,86.90
2023-03-24T17:17:37.218Z,86.80
2023-03-24T17:20:26.718Z,87.00
2023-03-24T17:23:15.683Z,87.29
2023-03-24T17:25:57.957Z,87.29
2023-03-24T17:28:47.763Z,86.92
2023-03-24T17:31:36.875Z,86.77
2023-03-24T17:34:22.436Z,86.26
2023-03-24T17:37:12.774Z,86.78
2023-03-24T17:40:02.036Z,86.59
2023-03-24T17:42:46.869Z,86.74
2023-03-24T17:45:36.498Z,86.80
2023-03-24T17:48:19.686Z,86.37
2023-03-24T17:51:07.958Z,85.74
2023-03-24T17:53:52.759Z,86.29
2023-03-24T17:56:35.130Z,86.20
2023-03-24T17:59:23.728Z,86.46
2023-03-24T18:02:13.056Z,85.19
2023-03-24T18:04:56.356Z,84.51
2023-03-24T18:07:42.628Z,84.37
2023-03-24T18:10:32.738Z,84.63
2023-03-24T18:13:22.775Z,84.54
2023-03-24T18:16:17.687Z,84.20
2023-03-24T18:19:10.235Z,84.07
2023-03-24T18:21:52.710Z,84.89
2023-03-24T18:24:35.259Z,84.38
2023-03-24T18:27:23.708Z,85.06
2023-03-24T18:30:14.194Z,84.78
2023-03-24T18:32:56.821Z,84.06
2023-03-24T18:35:39.006Z,83.85
2023-03-24T18:38:29.792Z,83.59
2023-03-24T18:41:19.271Z,83.36
2023-03-24T18:44:03.734Z,83.23
2023-03-24T18:46:46.114Z,82.72
2023-03-24T18:49:34.744Z,82.20
2023-03-24T18:52:19.127Z,82.04
2023-03-24T18:55:09.709Z,81.38
2023-03-24T18:57:52.054Z,81.37
2023-03-24T19:00:40.818Z,81.12
2023-03-24T19:03:31.152Z,80.67
2023-03-24T19:06:16.031Z,81.58
2023-03-24T19:09:06.518Z,82.36
2023-03-24T19:11:48.721Z,81.80
2023-03-24T19:14:31.039Z,81.94
2023-03-24T19:17:19.828Z,83.40
2023-03-24T19:20:11.174Z,82.12
2023-03-24T19:22:53.788Z,81.96
2023-03-24T19:25:36.333Z,82.62
2023-03-24T19:28:25.705Z,83.10
2023-03-24T19:31:10.907Z,84.27
2023-03-24T19:34:01.707Z,84.80
2023-03-24T19:36:47.643Z,85.82
2023-03-24T19:39:38.678Z,86.19
2023-03-24T19:42:21.301Z,87.46
2023-03-24T19:45:10.712Z,87.87
2023-03-24T19:48:00.236Z,88.04
2023-03-24T19:50:41.683Z,88.22
2023-03-24T19:53:33.152Z,88.46
2023-03-24T19:56:15.759Z,88.69
2023-03-24T19:59:04.756Z,88.07
2023-03-24T20:01:47.349Z,88.80
2023-03-24T20:04:36.671Z,89.04
2023-03-24T20:07:20.187Z,87.55
2023-03-24T20:10:08.741Z,86.41
2023-03-24T20:12:51.012Z,86.67
2023-03-24T20:15:39.656Z,85.47
2023-03-24T20:18:28.816Z,84.25
2023-03-24T20:21:20.067Z,83.60
2023-03-24T20:24:02.707Z,80.74
2023-03-24T20:26:46.557Z,80.88
2023-03-24T20:29:36.803Z,80.46
2023-03-24T20:32:19.145Z,80.59
2023-03-24T20:35:07.707Z,79.86
2023-03-24T20:37:50.026Z,79.04
2023-03-24T20:40:38.675Z,79.26
2023-03-24T20:43:28.693Z,77.67
2023-03-24T20:46:19.658Z,77.58
2023-03-24T20:49:02.428Z,75.90
2023-03-24T20:51:51.667Z,75.42
2023-03-24T20:54:40.709Z,75.00
2023-03-24T20:57:29.693Z,73.85
2023-03-24T21:00:21.706Z,74.81
2023-03-24T21:03:04.106Z,74.82
2023-03-24T21:05:52.820Z,76.72
2023-03-24T21:08:35.028Z,77.49
2023-03-24T21:11:24.696Z,76.64
2023-03-24T21:14:07.099Z,75.47
2023-03-24T21:16:55.806Z,74.59
2023-03-24T21:19:44.748Z,76.31
2023-03-24T21:22:27.488Z,75.37
2023-03-24T21:25:16.639Z,75.57
2023-03-24T21:27:59.864Z,76.86
2023-03-24T21:30:48.724Z,74.61
2023-03-24T21:33:31.000Z,76.47
2023-03-24T21:36:20.816Z,76.85
2023-03-24T21:39:17.538Z,76.25
2023-03-24T21:42:10.763Z,79.04
2023-03-24T21:44:53.121Z,78.05
2023-03-24T21:47:42.722Z,77.82
2023-03-24T21:50:33.631Z,79.10
2023-03-24T21:53:22.997Z,78.37
2023-03-24T21:56:12.814Z,79.34
2023-03-24T21:58:55.860Z,81.28
2023-03-24T22:01:44.754Z,81.95
2023-03-24T22:04:33.565Z,82.94
2023-03-24T22:07:23.700Z,84.38
2023-03-24T22:10:17.019Z,85.42
2023-03-24T22:13:00.752Z,86.00
2023-03-24T22:15:49.111Z,87.27
2023-03-24T22:18:34.085Z,87.92
2023-03-24T22:21:21.962Z,88.76
2023-03-24T22:24:04.734Z,89.24
2023-03-24T22:26:52.950Z,88.76
2023-03-24T22:29:36.797Z,89.63
2023-03-24T22:32:24.973Z,89.20
2023-03-24T22:35:09.686Z,89.04
2023-03-24T22:37:58.616Z,88.54
2023-03-24T22:40:54.739Z,88.83
2023-03-24T22:43:44.054Z,88.36
2023-03-24T22:46:26.700Z,88.18
2023-03-24T22:49:15.635Z,87.57
2023-03-24T22:51:58.141Z,87.53
2023-03-24T22:54:46.691Z,87.95
2023-03-24T22:57:29.034Z,88.39
2023-03-24T23:00:17.734Z,88.75
2023-03-24T23:03:06.764Z,87.48
2023-03-24T23:05:57.749Z,88.52
2023-03-24T23:08:41.693Z,88.81
2023-03-24T23:11:24.139Z,89.06
2023-03-24T23:14:13.687Z,88.66
2023-03-24T23:17:02.797Z,89.14
2023-03-24T23:19:46.092Z,89.10
2023-03-24T23:22:34.492Z,89.57
2023-03-24T23:25:17.706Z,89.64
2023-03-24T23:28:00.408Z,89.42
2023-03-24T23:30:49.714Z,89.93
2023-03-24T23:33:31.933Z,88.96
2023-03-24T23:36:22.762Z,88.33
2023-03-24T23:39:11.676Z,89.51
2023-03-24T23:42:06.679Z,88.43
2023-03-24T23:44:48.851Z,88.60
2023-03-24T23:47:37.717Z,88.63
2023-03-24T23:50:29.152Z,88.01
2023-03-24T23:53:11.670Z,88.27
2023-03-24T23:56:05.637Z,87.60
2023-03-24T23:58:49.122Z,87.55
